SVMI/CCS METAR and TAF weather

Enter ICAO airport designator
Station Type Date Time Source
SVMI METAR 2019/08/19 22:00 UTC NOAA

SVMI 192200Z 09004KT 9999 SCT016 29/24 Q1015


Station Type Date Time Source
SVMI Decoded METAR 2019/08/19 22:00 UTC NOAA

Caracas / Maiquetia Aerop. Intl. Simon Bolivar, Venezuela (SVMI) 10-36N 066-59W 48M
Aug 19, 2019 - 06:00 PM EDT / 2019.08.19 2200 UTC
Wind: from the E (090 degrees) at 5 MPH (4 KT):0
Visibility: greater than 7 mile(s):0
Sky conditions: partly cloudy
Temperature: 84 F (29 C)
Dew Point: 75 F (24 C)
Relative Humidity: 74%
Pressure (altimeter): 29.97 in. Hg (1015 hPa)
ob: SVMI 192200Z 09004KT 9999 SCT016 29/24 Q1015
cycle: 22

Station Type Date Time Source
SVMI TAF 2019/08/19 18:37 UTC NOAA

TAF SVMI 191600Z 1918/2018 24002KT 9999 SCT016 TX33/18Z TN23/08Z
BECMG 1918/1922 09005KT 9999 SCT016
TEMPO 1922/2000 VRB06KT 9000 -DZ BKN016

Example: see airport list